Time;durP1;ratioP1;P1;durP2;ratioP2;P2;SDS_P1;SDS_P2;PMS_P1;PMS_P2;Temp;Humidity;BMP_temperature;BMP_pressure;BME280_temperature;BME280_humidity;BME280_pressure;Samples;Min_cycle;Max_cycle;Signal;HPM_P1;HPM_P2
2021/05/22 00:05:12;;;;;;;3.42;1.05;;;;;;;;;;12879723;23;20008;-88
2021/05/22 06:08:37;;;;;;;4.07;1.10;;;;;;;;;;12885306;23;20721;-86
2021/05/22 07:12:10;;;;;;;3.78;0.98;;;;;;;;;;12893005;23;20019;-85
2021/05/22 07:17:13;;;;;;;1.33;0.75;;;;;;;;;;12896398;23;20004;-85
2021/05/22 07:22:17;;;;;;;3.58;1.05;;;;;;;;;;12901042;23;20028;-84
2021/05/22 07:27:24;;;;;;;3.55;1.10;;;;;;;;;;12903101;23;20005;-83
2021/05/22 07:32:26;;;;;;;4.13;1.23;;;;;;;;;;12903400;23;20009;-83
2021/05/22 07:37:33;;;;;;;5.00;1.20;;;;;;;;;;12905934;23;20004;-85
2021/05/22 07:42:34;;;;;;;5.05;1.30;;;;;;;;;;12902038;23;20353;-85
2021/05/22 07:47:37;;;;;;;4.35;1.10;;;;;;;;;;12898800;23;20009;-84
2021/05/22 07:52:41;;;;;;;2.45;0.85;;;;;;;;;;12873465;23;20009;-83
2021/05/22 07:58:07;;;;;;;3.95;1.15;;;;;;;;;;12897512;23;20048;-84
2021/05/22 08:03:08;;;;;;;4.72;1.02;;;;;;;;;;12895890;23;20075;-84
2021/05/22 08:08:09;;;;;;;6.72;1.00;;;;;;;;;;12895758;23;20062;-85
2021/05/22 08:13:17;;;;;;;4.20;1.10;;;;;;;;;;12896865;23;20008;-85
2021/05/22 08:18:22;;;;;;;2.53;1.00;;;;;;;;;;12898312;23;20000;-85
2021/05/22 08:23:23;;;;;;;3.58;1.08;;;;;;;;;;12898714;23;20032;-84
2021/05/22 08:28:27;;;;;;;2.05;0.93;;;;;;;;;;12898080;23;20043;-85
2021/05/22 08:33:32;;;;;;;3.20;1.00;;;;;;;;;;12901137;23;20005;-85
2021/05/22 08:38:34;;;;;;;2.15;1.00;;;;;;;;;;12918338;23;19996;-84
2021/05/22 08:43:35;;;;;;;2.95;1.00;;;;;;;;;;12898911;23;20031;-84
2021/05/22 08:48:37;;;;;;;2.05;0.82;;;;;;;;;;12888702;23;20001;-84
2021/05/22 08:53:38;;;;;;;3.42;1.10;;;;;;;;;;12888607;23;20027;-85
2021/05/22 08:58:54;;;;;;;3.47;0.98;;;;;;;;;;12889436;23;20278;-84
2021/05/22 09:03:59;;;;;;;3.40;0.85;;;;;;;;;;12889970;23;20015;-84
2021/05/22 09:15:06;;;;;;;2.50;0.90;;;;;;;;;;12897897;23;20020;-85
2021/05/22 09:20:19;;;;;;;2.00;0.98;;;;;;;;;;12893187;23;20063;-84
2021/05/22 09:25:24;;;;;;;2.35;1.05;;;;;;;;;;12890656;23;19996;-84
2021/05/22 09:30:26;;;;;;;2.30;1.00;;;;;;;;;;12887965;23;20094;-84
2021/05/22 09:41:25;;;;;;;4.65;1.20;;;;;;;;;;12883916;23;20000;-85
2021/05/22 09:46:26;;;;;;;4.40;0.95;;;;;;;;;;12852983;23;20091;-84
2021/05/22 09:51:27;;;;;;;4.57;1.10;;;;;;;;;;12877772;23;20004;-84
2021/05/22 09:56:28;;;;;;;3.00;0.93;;;;;;;;;;12878883;23;20053;-85
2021/05/22 10:01:30;;;;;;;4.38;0.80;;;;;;;;;;12876251;23;20444;-83
2021/05/22 10:06:41;;;;;;;3.92;1.30;;;;;;;;;;12881955;23;20015;-84
2021/05/22 10:12:01;;;;;;;3.22;0.88;;;;;;;;;;12884488;23;20001;-84
2021/05/22 10:17:04;;;;;;;2.55;1.10;;;;;;;;;;12884504;23;20012;-82
2021/05/22 10:22:15;;;;;;;2.80;0.93;;;;;;;;;;12887060;23;20008;-86
2021/05/22 10:27:16;;;;;;;4.43;1.10;;;;;;;;;;12892441;23;20009;-84
2021/05/22 10:32:22;;;;;;;3.25;1.02;;;;;;;;;;12890585;23;20005;-84
2021/05/22 10:37:36;;;;;;;4.15;1.20;;;;;;;;;;12897452;23;19996;-84
2021/05/22 10:42:37;;;;;;;2.58;1.00;;;;;;;;;;12908609;23;20306;-85
2021/05/22 10:47:38;;;;;;;3.50;1.08;;;;;;;;;;12893066;23;20038;-84
2021/05/22 10:52:39;;;;;;;4.30;1.30;;;;;;;;;;12894994;23;20005;-84
2021/05/22 10:57:46;;;;;;;4.03;1.20;;;;;;;;;;12892075;23;20088;-84
2021/05/22 11:02:52;;;;;;;3.88;1.00;;;;;;;;;;12890968;23;20492;-85
2021/05/22 11:08:09;;;;;;;2.47;1.00;;;;;;;;;;12889562;23;20020;-84
2021/05/22 11:13:22;;;;;;;3.22;0.90;;;;;;;;;;12889093;23;20017;-84
2021/05/22 11:18:32;;;;;;;4.00;1.10;;;;;;;;;;12889472;23;20604;-85
2021/05/22 11:23:53;;;;;;;4.05;1.00;;;;;;;;;;12885068;23;20016;-84
2021/05/22 11:28:54;;;;;;;3.15;0.90;;;;;;;;;;12876894;23;20091;-84
2021/05/22 11:33:58;;;;;;;2.53;0.90;;;;;;;;;;12880105;23;20008;-86
2021/05/22 11:39:22;;;;;;;3.42;1.10;;;;;;;;;;12883347;23;20313;-85
2021/05/22 11:44:24;;;;;;;3.83;1.20;;;;;;;;;;12879328;23;20012;-84
2021/05/22 12:07:13;;;;;;;;;;;;;;;;;;;;;
2021/05/22 12:23:37;;;;;;;4.68;1.95;;;;;;;;;;12864295;23;20029;-88
2021/05/22 12:29:14;;;;;;;5.53;1.70;;;;;;;;;;12851858;23;20029;-88
2021/05/22 16:02:38;;;;;;;3.75;2.33;;;;;;;;;;12870932;23;20005;-87
2021/05/22 16:07:41;;;;;;;3.00;2.05;;;;;;;;;;12841614;23;20091;-87
